sensor_id;sensor_type;location;lat;lon;timestamp;temperature;humidity
11532;DHT22;5822;51.000;5.874;2023-02-03T00:00:31;10.90;99.90
11532;DHT22;5822;51.000;5.874;2023-02-03T00:02:57;10.90;99.90
11532;DHT22;5822;51.000;5.874;2023-02-03T00:05:23;10.90;99.90
11532;DHT22;5822;51.000;5.874;2023-02-03T00:07:49;11.00;99.90
11532;DHT22;5822;51.000;5.874;2023-02-03T00:10:16;11.00;99.90
11532;DHT22;5822;51.000;5.874;2023-02-03T00:12:49;10.90;99.90
11532;DHT22;5822;51.000;5.874;2023-02-03T00:15:15;11.00;99.90
11532;DHT22;5822;51.000;5.874;2023-02-03T00:17:41;10.90;99.90
11532;DHT22;5822;51.000;5.874;2023-02-03T00:20:07;10.90;99.90
11532;DHT22;5822;51.000;5.874;2023-02-03T00:22:32;10.90;99.90
11532;DHT22;5822;51.000;5.874;2023-02-03T00:24:58;10.90;99.90
11532;DHT22;5822;51.000;5.874;2023-02-03T00:27:24;10.90;99.90
11532;DHT22;5822;51.000;5.874;2023-02-03T00:29:50;10.90;99.90
11532;DHT22;5822;51.000;5.874;2023-02-03T00:32:16;10.90;99.90
11532;DHT22;5822;51.000;5.874;2023-02-03T00:34:41;11.00;99.90
11532;DHT22;5822;51.000;5.874;2023-02-03T00:37:07;10.90;99.90
11532;DHT22;5822;51.000;5.874;2023-02-03T00:39:35;10.90;99.90
11532;DHT22;5822;51.000;5.874;2023-02-03T00:42:02;10.80;99.90
11532;DHT22;5822;51.000;5.874;2023-02-03T00:44:28;10.90;99.90
11532;DHT22;5822;51.000;5.874;2023-02-03T00:46:54;10.90;99.90
11532;DHT22;5822;51.000;5.874;2023-02-03T00:49:19;10.90;99.90
11532;DHT22;5822;51.000;5.874;2023-02-03T00:51:45;11.00;99.90
11532;DHT22;5822;51.000;5.874;2023-02-03T00:54:10;10.90;99.90
11532;DHT22;5822;51.000;5.874;2023-02-03T00:56:38;10.80;99.90
11532;DHT22;5822;51.000;5.874;2023-02-03T00:59:03;10.80;99.90
11532;DHT22;5822;51.000;5.874;2023-02-03T01:01:29;10.80;99.90
11532;DHT22;5822;51.000;5.874;2023-02-03T01:03:55;10.90;99.90
11532;DHT22;5822;51.000;5.874;2023-02-03T01:06:21;10.90;99.90
11532;DHT22;5822;51.000;5.874;2023-02-03T01:08:48;10.80;99.90
11532;DHT22;5822;51.000;5.874;2023-02-03T01:11:17;10.90;99.90
11532;DHT22;5822;51.000;5.874;2023-02-03T01:13:43;10.80;99.90
11532;DHT22;5822;51.000;5.874;2023-02-03T01:16:11;10.80;99.90
11532;DHT22;5822;51.000;5.874;2023-02-03T01:18:38;10.80;99.90
11532;DHT22;5822;51.000;5.874;2023-02-03T01:21:05;10.90;99.90
11532;DHT22;5822;51.000;5.874;2023-02-03T01:23:31;10.90;99.90
11532;DHT22;5822;51.000;5.874;2023-02-03T01:26:04;10.90;99.90
11532;DHT22;5822;51.000;5.874;2023-02-03T01:28:30;10.90;99.90
11532;DHT22;5822;51.000;5.874;2023-02-03T01:30:56;10.80;99.90
11532;DHT22;5822;51.000;5.874;2023-02-03T01:33:21;10.80;99.90
11532;DHT22;5822;51.000;5.874;2023-02-03T01:35:47;10.90;99.90
11532;DHT22;5822;51.000;5.874;2023-02-03T01:38:12;10.80;99.90
11532;DHT22;5822;51.000;5.874;2023-02-03T01:40:43;10.80;99.90
11532;DHT22;5822;51.000;5.874;2023-02-03T01:43:09;10.80;99.90
11532;DHT22;5822;51.000;5.874;2023-02-03T01:45:36;10.90;99.90
11532;DHT22;5822;51.000;5.874;2023-02-03T01:48:03;10.90;99.90
11532;DHT22;5822;51.000;5.874;2023-02-03T01:50:35;10.90;99.90
11532;DHT22;5822;51.000;5.874;2023-02-03T01:53:05;11.00;99.90
11532;DHT22;5822;51.000;5.874;2023-02-03T01:55:37;10.90;99.90
11532;DHT22;5822;51.000;5.874;2023-02-03T01:58:23;10.90;99.90
11532;DHT22;5822;51.000;5.874;2023-02-03T02:00:51;10.90;99.90
11532;DHT22;5822;51.000;5.874;2023-02-03T02:03:21;11.00;99.90
11532;DHT22;5822;51.000;5.874;2023-02-03T02:05:55;10.90;99.90
11532;DHT22;5822;51.000;5.874;2023-02-03T02:08:22;10.80;99.90
11532;DHT22;5822;51.000;5.874;2023-02-03T02:10:49;10.90;99.90
11532;DHT22;5822;51.000;5.874;2023-02-03T02:13:15;10.90;99.90
11532;DHT22;5822;51.000;5.874;2023-02-03T02:15:57;11.00;99.90
11532;DHT22;5822;51.000;5.874;2023-02-03T02:18:32;10.80;99.90
11532;DHT22;5822;51.000;5.874;2023-02-03T02:32:05;10.90;99.90
11532;DHT22;5822;51.000;5.874;2023-02-03T02:35:43;10.80;99.90
11532;DHT22;5822;51.000;5.874;2023-02-03T02:43:33;10.90;99.90
11532;DHT22;5822;51.000;5.874;2023-02-03T02:46:08;10.90;99.90
11532;DHT22;5822;51.000;5.874;2023-02-03T02:48:47;10.90;99.90
11532;DHT22;5822;51.000;5.874;2023-02-03T02:51:15;10.80;99.90
11532;DHT22;5822;51.000;5.874;2023-02-03T02:53:51;10.80;99.90
11532;DHT22;5822;51.000;5.874;2023-02-03T02:56:18;10.80;99.90
11532;DHT22;5822;51.000;5.874;2023-02-03T02:58:47;10.90;99.90
11532;DHT22;5822;51.000;5.874;2023-02-03T03:01:14;10.90;99.90
11532;DHT22;5822;51.000;5.874;2023-02-03T03:03:41;10.80;99.90
11532;DHT22;5822;51.000;5.874;2023-02-03T03:06:17;10.80;99.90
11532;DHT22;5822;51.000;5.874;2023-02-03T03:08:53;10.80;99.90
11532;DHT22;5822;51.000;5.874;2023-02-03T03:11:23;10.80;99.90
11532;DHT22;5822;51.000;5.874;2023-02-03T03:13:51;10.80;99.90
11532;DHT22;5822;51.000;5.874;2023-02-03T03:16:25;10.80;99.90
11532;DHT22;5822;51.000;5.874;2023-02-03T03:19:00;10.90;99.90
11532;DHT22;5822;51.000;5.874;2023-02-03T03:21:31;10.90;99.90
11532;DHT22;5822;51.000;5.874;2023-02-03T03:24:02;10.80;99.90
11532;DHT22;5822;51.000;5.874;2023-02-03T03:29:11;10.80;99.90
11532;DHT22;5822;51.000;5.874;2023-02-03T03:31:39;10.90;99.90
11532;DHT22;5822;51.000;5.874;2023-02-03T03:34:07;10.80;99.90
11532;DHT22;5822;51.000;5.874;2023-02-03T03:36:56;10.90;99.90
11532;DHT22;5822;51.000;5.874;2023-02-03T03:39:45;10.80;99.90
11532;DHT22;5822;51.000;5.874;2023-02-03T03:42:39;10.90;99.90
11532;DHT22;5822;51.000;5.874;2023-02-03T03:45:17;10.90;99.90
11532;DHT22;5822;51.000;5.874;2023-02-03T03:47:56;10.90;99.90
11532;DHT22;5822;51.000;5.874;2023-02-03T03:50:55;10.90;99.90
11532;DHT22;5822;51.000;5.874;2023-02-03T03:53:22;10.90;99.90
11532;DHT22;5822;51.000;5.874;2023-02-03T03:55:51;10.90;99.90
11532;DHT22;5822;51.000;5.874;2023-02-03T03:58:28;10.90;99.90
11532;DHT22;5822;51.000;5.874;2023-02-03T04:00:57;10.90;99.90
11532;DHT22;5822;51.000;5.874;2023-02-03T04:03:29;10.80;99.90
11532;DHT22;5822;51.000;5.874;2023-02-03T04:05:55;10.80;99.90
11532;DHT22;5822;51.000;5.874;2023-02-03T04:08:21;10.90;99.90
11532;DHT22;5822;51.000;5.874;2023-02-03T04:10:47;10.80;99.90
11532;DHT22;5822;51.000;5.874;2023-02-03T04:13:12;10.70;99.90
11532;DHT22;5822;51.000;5.874;2023-02-03T04:15:40;10.70;99.90
11532;DHT22;5822;51.000;5.874;2023-02-03T04:18:06;10.70;99.90
11532;DHT22;5822;51.000;5.874;2023-02-03T04:20:32;10.70;99.90
11532;DHT22;5822;51.000;5.874;2023-02-03T04:22:59;10.80;99.90
11532;DHT22;5822;51.000;5.874;2023-02-03T04:25:25;10.80;99.90
11532;DHT22;5822;51.000;5.874;2023-02-03T04:27:50;10.80;99.90
11532;DHT22;5822;51.000;5.874;2023-02-03T04:30:16;10.90;99.90
11532;DHT22;5822;51.000;5.874;2023-02-03T04:32:46;10.90;99.90
11532;DHT22;5822;51.000;5.874;2023-02-03T04:35:12;10.90;99.90
11532;DHT22;5822;51.000;5.874;2023-02-03T04:37:38;10.90;99.90
11532;DHT22;5822;51.000;5.874;2023-02-03T04:40:04;10.90;99.90
11532;DHT22;5822;51.000;5.874;2023-02-03T04:42:30;11.00;99.90
11532;DHT22;5822;51.000;5.874;2023-02-03T04:44:56;10.90;99.90
11532;DHT22;5822;51.000;5.874;2023-02-03T04:47:21;11.00;99.90
11532;DHT22;5822;51.000;5.874;2023-02-03T04:49:47;11.00;99.90
11532;DHT22;5822;51.000;5.874;2023-02-03T04:52:13;11.00;99.90
11532;DHT22;5822;51.000;5.874;2023-02-03T04:54:38;11.00;99.90
11532;DHT22;5822;51.000;5.874;2023-02-03T04:57:04;11.00;99.90
11532;DHT22;5822;51.000;5.874;2023-02-03T04:59:30;11.00;99.90
11532;DHT22;5822;51.000;5.874;2023-02-03T05:01:56;10.90;99.90
11532;DHT22;5822;51.000;5.874;2023-02-03T05:04:22;11.00;99.90
11532;DHT22;5822;51.000;5.874;2023-02-03T05:06:48;11.00;99.90
11532;DHT22;5822;51.000;5.874;2023-02-03T05:09:14;11.00;99.90
11532;DHT22;5822;51.000;5.874;2023-02-03T05:11:43;11.00;99.90
11532;DHT22;5822;51.000;5.874;2023-02-03T05:14:08;10.90;99.90
11532;DHT22;5822;51.000;5.874;2023-02-03T05:16:34;10.90;99.90
11532;DHT22;5822;51.000;5.874;2023-02-03T05:18:59;10.90;99.90
11532;DHT22;5822;51.000;5.874;2023-02-03T05:21:25;10.80;99.90
11532;DHT22;5822;51.000;5.874;2023-02-03T05:23:51;10.90;99.90
11532;DHT22;5822;51.000;5.874;2023-02-03T05:26:17;10.90;99.90
11532;DHT22;5822;51.000;5.874;2023-02-03T05:28:42;11.00;99.90
11532;DHT22;5822;51.000;5.874;2023-02-03T05:31:08;10.90;99.90
11532;DHT22;5822;51.000;5.874;2023-02-03T05:33:34;10.90;99.90
11532;DHT22;5822;51.000;5.874;2023-02-03T05:36:01;10.90;99.90
11532;DHT22;5822;51.000;5.874;2023-02-03T05:38:27;10.90;99.90
11532;DHT22;5822;51.000;5.874;2023-02-03T05:40:52;11.00;99.90
11532;DHT22;5822;51.000;5.874;2023-02-03T05:43:36;10.90;99.90
11532;DHT22;5822;51.000;5.874;2023-02-03T05:46:03;10.90;99.90
11532;DHT22;5822;51.000;5.874;2023-02-03T05:48:30;10.80;99.90
11532;DHT22;5822;51.000;5.874;2023-02-03T05:50:56;10.80;99.90
11532;DHT22;5822;51.000;5.874;2023-02-03T05:53:22;10.80;99.90
11532;DHT22;5822;51.000;5.874;2023-02-03T05:55:47;10.80;99.90
11532;DHT22;5822;51.000;5.874;2023-02-03T05:58:13;10.80;99.90
11532;DHT22;5822;51.000;5.874;2023-02-03T06:00:39;10.80;99.90
11532;DHT22;5822;51.000;5.874;2023-02-03T06:03:04;10.90;99.90
11532;DHT22;5822;51.000;5.874;2023-02-03T06:05:31;11.00;99.90
11532;DHT22;5822;51.000;5.874;2023-02-03T06:07:58;11.00;99.90
11532;DHT22;5822;51.000;5.874;2023-02-03T06:10:23;11.00;99.90
11532;DHT22;5822;51.000;5.874;2023-02-03T06:12:49;10.90;99.90
11532;DHT22;5822;51.000;5.874;2023-02-03T06:15:16;10.90;99.90
11532;DHT22;5822;51.000;5.874;2023-02-03T06:17:47;11.00;99.90
11532;DHT22;5822;51.000;5.874;2023-02-03T06:20:14;10.90;99.90
11532;DHT22;5822;51.000;5.874;2023-02-03T06:22:40;10.90;99.90
11532;DHT22;5822;51.000;5.874;2023-02-03T06:25:06;10.90;99.90
11532;DHT22;5822;51.000;5.874;2023-02-03T06:27:32;10.90;99.90
11532;DHT22;5822;51.000;5.874;2023-02-03T06:29:57;10.80;99.90
11532;DHT22;5822;51.000;5.874;2023-02-03T06:32:23;10.80;99.90
11532;DHT22;5822;51.000;5.874;2023-02-03T06:34:49;10.80;99.90
11532;DHT22;5822;51.000;5.874;2023-02-03T06:37:15;10.80;99.90
11532;DHT22;5822;51.000;5.874;2023-02-03T06:39:40;10.80;99.90
11532;DHT22;5822;51.000;5.874;2023-02-03T06:42:06;10.80;99.90
11532;DHT22;5822;51.000;5.874;2023-02-03T06:44:31;10.80;99.90
11532;DHT22;5822;51.000;5.874;2023-02-03T06:46:57;10.80;99.90
11532;DHT22;5822;51.000;5.874;2023-02-03T06:49:23;10.70;99.90
11532;DHT22;5822;51.000;5.874;2023-02-03T06:51:50;10.70;99.90
11532;DHT22;5822;51.000;5.874;2023-02-03T06:54:17;10.70;99.90
11532;DHT22;5822;51.000;5.874;2023-02-03T06:56:42;10.80;99.90
11532;DHT22;5822;51.000;5.874;2023-02-03T06:59:08;10.80;99.90
11532;DHT22;5822;51.000;5.874;2023-02-03T07:01:35;10.80;99.90
11532;DHT22;5822;51.000;5.874;2023-02-03T07:04:01;10.80;99.90
11532;DHT22;5822;51.000;5.874;2023-02-03T07:06:28;10.80;99.90
11532;DHT22;5822;51.000;5.874;2023-02-03T07:08:57;10.80;99.90
11532;DHT22;5822;51.000;5.874;2023-02-03T07:11:23;10.80;99.90
11532;DHT22;5822;51.000;5.874;2023-02-03T07:13:49;10.90;99.90
11532;DHT22;5822;51.000;5.874;2023-02-03T07:16:15;10.90;99.90
11532;DHT22;5822;51.000;5.874;2023-02-03T07:18:41;10.80;99.90
11532;DHT22;5822;51.000;5.874;2023-02-03T07:21:07;10.80;99.90
11532;DHT22;5822;51.000;5.874;2023-02-03T07:23:33;10.80;99.90
11532;DHT22;5822;51.000;5.874;2023-02-03T07:25:59;10.80;99.90
11532;DHT22;5822;51.000;5.874;2023-02-03T07:28:25;10.80;99.90
11532;DHT22;5822;51.000;5.874;2023-02-03T07:30:51;10.80;99.90
11532;DHT22;5822;51.000;5.874;2023-02-03T07:33:16;10.80;99.90
11532;DHT22;5822;51.000;5.874;2023-02-03T07:35:42;10.80;99.90
11532;DHT22;5822;51.000;5.874;2023-02-03T07:38:07;10.70;99.90
11532;DHT22;5822;51.000;5.874;2023-02-03T07:40:33;10.80;99.90
11532;DHT22;5822;51.000;5.874;2023-02-03T07:42:59;10.90;99.90
11532;DHT22;5822;51.000;5.874;2023-02-03T07:45:24;10.90;99.90
11532;DHT22;5822;51.000;5.874;2023-02-03T07:47:50;10.90;99.90
11532;DHT22;5822;51.000;5.874;2023-02-03T07:50:16;10.90;99.90
11532;DHT22;5822;51.000;5.874;2023-02-03T07:52:41;10.90;99.90
11532;DHT22;5822;51.000;5.874;2023-02-03T07:55:08;11.00;99.90
11532;DHT22;5822;51.000;5.874;2023-02-03T07:57:33;11.00;99.90
11532;DHT22;5822;51.000;5.874;2023-02-03T07:59:59;11.00;99.90
11532;DHT22;5822;51.000;5.874;2023-02-03T08:02:25;11.00;99.90
11532;DHT22;5822;51.000;5.874;2023-02-03T08:04:51;10.90;99.90
11532;DHT22;5822;51.000;5.874;2023-02-03T08:07:16;10.90;99.90
11532;DHT22;5822;51.000;5.874;2023-02-03T08:09:42;10.90;99.90
11532;DHT22;5822;51.000;5.874;2023-02-03T08:12:07;10.90;99.90
11532;DHT22;5822;51.000;5.874;2023-02-03T08:14:33;10.90;99.90
11532;DHT22;5822;51.000;5.874;2023-02-03T08:16:59;10.90;99.90
11532;DHT22;5822;51.000;5.874;2023-02-03T08:19:24;10.90;99.90
11532;DHT22;5822;51.000;5.874;2023-02-03T08:21:50;10.90;99.90
11532;DHT22;5822;51.000;5.874;2023-02-03T08:24:15;11.00;99.90
11532;DHT22;5822;51.000;5.874;2023-02-03T08:26:41;10.90;99.90
11532;DHT22;5822;51.000;5.874;2023-02-03T08:29:07;11.00;99.90
11532;DHT22;5822;51.000;5.874;2023-02-03T08:31:32;11.00;99.90
11532;DHT22;5822;51.000;5.874;2023-02-03T08:33:58;11.00;99.90
11532;DHT22;5822;51.000;5.874;2023-02-03T08:36:24;11.00;99.90
11532;DHT22;5822;51.000;5.874;2023-02-03T08:38:50;11.00;99.90
11532;DHT22;5822;51.000;5.874;2023-02-03T08:41:16;11.00;99.90
11532;DHT22;5822;51.000;5.874;2023-02-03T08:43:43;11.00;99.90
11532;DHT22;5822;51.000;5.874;2023-02-03T08:46:10;11.00;99.90
11532;DHT22;5822;51.000;5.874;2023-02-03T08:48:36;11.10;99.90
11532;DHT22;5822;51.000;5.874;2023-02-03T08:51:09;11.10;99.90
11532;DHT22;5822;51.000;5.874;2023-02-03T08:53:35;11.10;99.90
11532;DHT22;5822;51.000;5.874;2023-02-03T08:56:08;11.20;99.90
11532;DHT22;5822;51.000;5.874;2023-02-03T08:58:34;11.10;99.90
11532;DHT22;5822;51.000;5.874;2023-02-03T09:01:11;11.00;99.90
11532;DHT22;5822;51.000;5.874;2023-02-03T09:03:37;11.10;99.90
11532;DHT22;5822;51.000;5.874;2023-02-03T09:06:04;11.00;99.90
11532;DHT22;5822;51.000;5.874;2023-02-03T09:08:30;11.00;99.90
11532;DHT22;5822;51.000;5.874;2023-02-03T09:10:56;11.00;99.90
11532;DHT22;5822;51.000;5.874;2023-02-03T09:13:22;11.10;99.90
11532;DHT22;5822;51.000;5.874;2023-02-03T09:15:48;11.00;99.90
11532;DHT22;5822;51.000;5.874;2023-02-03T09:18:13;11.10;99.90
11532;DHT22;5822;51.000;5.874;2023-02-03T09:20:39;11.20;99.90
11532;DHT22;5822;51.000;5.874;2023-02-03T09:23:05;11.20;99.90
11532;DHT22;5822;51.000;5.874;2023-02-03T09:25:31;11.20;99.90
11532;DHT22;5822;51.000;5.874;2023-02-03T09:28:00;11.20;99.90
11532;DHT22;5822;51.000;5.874;2023-02-03T09:30:26;11.20;99.90
11532;DHT22;5822;51.000;5.874;2023-02-03T09:32:52;11.20;99.90
11532;DHT22;5822;51.000;5.874;2023-02-03T09:35:19;11.10;99.90
11532;DHT22;5822;51.000;5.874;2023-02-03T09:37:45;11.10;99.90
11532;DHT22;5822;51.000;5.874;2023-02-03T09:40:23;11.10;99.90
11532;DHT22;5822;51.000;5.874;2023-02-03T09:45:44;11.10;99.90
11532;DHT22;5822;51.000;5.874;2023-02-03T09:48:20;11.10;99.90
11532;DHT22;5822;51.000;5.874;2023-02-03T09:50:48;11.10;99.90
11532;DHT22;5822;51.000;5.874;2023-02-03T09:53:26;11.20;99.90
11532;DHT22;5822;51.000;5.874;2023-02-03T09:55:54;11.20;99.90
11532;DHT22;5822;51.000;5.874;2023-02-03T09:58:20;11.10;99.90
11532;DHT22;5822;51.000;5.874;2023-02-03T10:06:30;11.10;99.90
11532;DHT22;5822;51.000;5.874;2023-02-03T10:18:01;10.90;99.90
11532;DHT22;5822;51.000;5.874;2023-02-03T10:20:37;10.90;99.90
11532;DHT22;5822;51.000;5.874;2023-02-03T10:23:19;10.90;99.90
11532;DHT22;5822;51.000;5.874;2023-02-03T10:25:53;10.90;99.90
11532;DHT22;5822;51.000;5.874;2023-02-03T10:28:26;10.90;99.90
11532;DHT22;5822;51.000;5.874;2023-02-03T10:30:56;10.80;99.90
11532;DHT22;5822;51.000;5.874;2023-02-03T10:33:27;10.90;99.90
11532;DHT22;5822;51.000;5.874;2023-02-03T10:35:54;10.80;99.90
11532;DHT22;5822;51.000;5.874;2023-02-03T10:41:07;10.80;99.90
11532;DHT22;5822;51.000;5.874;2023-02-03T10:43:33;10.80;99.90
11532;DHT22;5822;51.000;5.874;2023-02-03T10:46:16;10.90;99.90
11532;DHT22;5822;51.000;5.874;2023-02-03T10:48:42;10.80;99.90
11532;DHT22;5822;51.000;5.874;2023-02-03T10:51:23;10.90;99.90
11532;DHT22;5822;51.000;5.874;2023-02-03T10:53:50;10.80;99.90
11532;DHT22;5822;51.000;5.874;2023-02-03T10:56:20;10.80;99.90
11532;DHT22;5822;51.000;5.874;2023-02-03T10:58:50;10.80;99.90
11532;DHT22;5822;51.000;5.874;2023-02-03T11:01:19;10.80;99.90
11532;DHT22;5822;51.000;5.874;2023-02-03T11:03:56;10.90;99.90
11532;DHT22;5822;51.000;5.874;2023-02-03T11:06:22;10.90;99.90
11532;DHT22;5822;51.000;5.874;2023-02-03T11:08:49;10.90;99.90
11532;DHT22;5822;51.000;5.874;2023-02-03T11:11:25;10.90;99.90
11532;DHT22;5822;51.000;5.874;2023-02-03T11:16:30;10.90;99.90
11532;DHT22;5822;51.000;5.874;2023-02-03T11:19:01;10.90;99.90
11532;DHT22;5822;51.000;5.874;2023-02-03T11:21:52;11.00;99.90
11532;DHT22;5822;51.000;5.874;2023-02-03T11:24:25;11.00;99.90
11532;DHT22;5822;51.000;5.874;2023-02-03T11:29:28;11.00;99.90
11532;DHT22;5822;51.000;5.874;2023-02-03T11:31:57;11.10;99.90
11532;DHT22;5822;51.000;5.874;2023-02-03T11:34:35;11.10;99.90
11532;DHT22;5822;51.000;5.874;2023-02-03T11:37:28;11.10;99.90
11532;DHT22;5822;51.000;5.874;2023-02-03T11:42:35;11.20;99.90
11532;DHT22;5822;51.000;5.874;2023-02-03T11:45:40;11.30;99.90
11532;DHT22;5822;51.000;5.874;2023-02-03T11:50:46;11.20;99.90
11532;DHT22;5822;51.000;5.874;2023-02-03T11:56:24;11.30;99.90
11532;DHT22;5822;51.000;5.874;2023-02-03T12:29:45;11.50;99.90
11532;DHT22;5822;51.000;5.874;2023-02-03T12:32:32;11.50;99.90
11532;DHT22;5822;51.000;5.874;2023-02-03T12:35:10;11.50;99.90
11532;DHT22;5822;51.000;5.874;2023-02-03T12:37:45;11.50;99.90
11532;DHT22;5822;51.000;5.874;2023-02-03T12:40:21;11.50;99.90
11532;DHT22;5822;51.000;5.874;2023-02-03T12:42:58;11.50;99.90
11532;DHT22;5822;51.000;5.874;2023-02-03T12:45:30;11.50;99.90
11532;DHT22;5822;51.000;5.874;2023-02-03T12:48:10;11.60;99.90
11532;DHT22;5822;51.000;5.874;2023-02-03T12:50:59;11.60;99.90
11532;DHT22;5822;51.000;5.874;2023-02-03T12:53:35;11.60;99.90
11532;DHT22;5822;51.000;5.874;2023-02-03T12:56:07;11.60;99.90
11532;DHT22;5822;51.000;5.874;2023-02-03T13:01:17;11.60;99.90
11532;DHT22;5822;51.000;5.874;2023-02-03T13:04:05;11.60;99.90
11532;DHT22;5822;51.000;5.874;2023-02-03T13:07:25;11.70;99.90
11532;DHT22;5822;51.000;5.874;2023-02-03T13:09:37;11.60;99.90
11532;DHT22;5822;51.000;5.874;2023-02-03T13:12:19;11.70;99.90
11532;DHT22;5822;51.000;5.874;2023-02-03T13:15:24;11.70;99.90
11532;DHT22;5822;51.000;5.874;2023-02-03T13:18:11;11.60;99.90
11532;DHT22;5822;51.000;5.874;2023-02-03T13:20:40;11.70;99.90
11532;DHT22;5822;51.000;5.874;2023-02-03T13:23:09;11.60;99.90
11532;DHT22;5822;51.000;5.874;2023-02-03T13:29:05;11.60;99.90
11532;DHT22;5822;51.000;5.874;2023-02-03T13:42:24;11.60;99.90
11532;DHT22;5822;51.000;5.874;2023-02-03T13:45:14;11.70;99.90
11532;DHT22;5822;51.000;5.874;2023-02-03T13:47:50;11.70;99.90
11532;DHT22;5822;51.000;5.874;2023-02-03T13:50:27;11.70;99.90
11532;DHT22;5822;51.000;5.874;2023-02-03T13:53:02;11.70;99.90
11532;DHT22;5822;51.000;5.874;2023-02-03T13:58:39;11.70;99.90
11532;DHT22;5822;51.000;5.874;2023-02-03T14:03:57;11.70;99.90
11532;DHT22;5822;51.000;5.874;2023-02-03T14:11:50;11.60;99.90
11532;DHT22;5822;51.000;5.874;2023-02-03T14:16:49;11.60;99.90
11532;DHT22;5822;51.000;5.874;2023-02-03T14:21:51;11.60;99.90
11532;DHT22;5822;51.000;5.874;2023-02-03T14:24:18;11.70;99.90
11532;DHT22;5822;51.000;5.874;2023-02-03T14:26:51;11.70;99.90
11532;DHT22;5822;51.000;5.874;2023-02-03T14:29:30;11.70;99.90
11532;DHT22;5822;51.000;5.874;2023-02-03T14:32:04;11.70;99.90
11532;DHT22;5822;51.000;5.874;2023-02-03T14:34:37;11.70;99.90
11532;DHT22;5822;51.000;5.874;2023-02-03T14:37:30;11.70;99.90
11532;DHT22;5822;51.000;5.874;2023-02-03T14:40:20;11.70;99.90
11532;DHT22;5822;51.000;5.874;2023-02-03T14:58:06;11.70;99.90
11532;DHT22;5822;51.000;5.874;2023-02-03T15:00:39;11.70;99.90
11532;DHT22;5822;51.000;5.874;2023-02-03T15:05:49;11.70;99.90
11532;DHT22;5822;51.000;5.874;2023-02-03T15:11:27;11.70;99.90
11532;DHT22;5822;51.000;5.874;2023-02-03T15:13:55;11.70;99.90
11532;DHT22;5822;51.000;5.874;2023-02-03T15:16:23;11.70;99.90
11532;DHT22;5822;51.000;5.874;2023-02-03T15:18:57;11.70;99.90
11532;DHT22;5822;51.000;5.874;2023-02-03T15:21:24;11.70;99.90
11532;DHT22;5822;51.000;5.874;2023-02-03T15:23:50;11.70;99.90
11532;DHT22;5822;51.000;5.874;2023-02-03T15:26:20;11.70;99.90
11532;DHT22;5822;51.000;5.874;2023-02-03T15:29:02;11.70;99.90
11532;DHT22;5822;51.000;5.874;2023-02-03T15:31:35;11.70;99.90
11532;DHT22;5822;51.000;5.874;2023-02-03T15:37:39;11.80;99.90
11532;DHT22;5822;51.000;5.874;2023-02-03T15:40:15;11.80;99.90
11532;DHT22;5822;51.000;5.874;2023-02-03T15:42:43;11.80;99.90
11532;DHT22;5822;51.000;5.874;2023-02-03T15:48:00;11.80;99.90
11532;DHT22;5822;51.000;5.874;2023-02-03T15:50:38;11.80;99.90
11532;DHT22;5822;51.000;5.874;2023-02-03T15:53:14;11.80;99.90
11532;DHT22;5822;51.000;5.874;2023-02-03T15:55:48;11.80;99.90
11532;DHT22;5822;51.000;5.874;2023-02-03T15:58:39;11.80;99.90
11532;DHT22;5822;51.000;5.874;2023-02-03T16:01:11;11.80;99.90
11532;DHT22;5822;51.000;5.874;2023-02-03T16:03:45;11.80;99.90
11532;DHT22;5822;51.000;5.874;2023-02-03T16:08:44;11.80;99.90
11532;DHT22;5822;51.000;5.874;2023-02-03T16:11:21;11.80;99.90
11532;DHT22;5822;51.000;5.874;2023-02-03T16:13:47;11.80;99.90
11532;DHT22;5822;51.000;5.874;2023-02-03T16:16:17;11.80;99.90
11532;DHT22;5822;51.000;5.874;2023-02-03T16:18:54;11.80;99.90
11532;DHT22;5822;51.000;5.874;2023-02-03T16:23:50;11.80;99.90
11532;DHT22;5822;51.000;5.874;2023-02-03T16:26:18;11.80;99.90
11532;DHT22;5822;51.000;5.874;2023-02-03T16:31:48;11.80;99.90
11532;DHT22;5822;51.000;5.874;2023-02-03T16:34:33;11.70;99.90
11532;DHT22;5822;51.000;5.874;2023-02-03T16:37:27;11.70;99.90
11532;DHT22;5822;51.000;5.874;2023-02-03T16:40:13;11.70;99.90
11532;DHT22;5822;51.000;5.874;2023-02-03T16:42:57;11.70;99.90
11532;DHT22;5822;51.000;5.874;2023-02-03T16:45:42;11.70;99.90
11532;DHT22;5822;51.000;5.874;2023-02-03T16:48:25;11.70;99.90
11532;DHT22;5822;51.000;5.874;2023-02-03T16:51:13;11.80;99.90
11532;DHT22;5822;51.000;5.874;2023-02-03T16:53:41;11.70;99.90
11532;DHT22;5822;51.000;5.874;2023-02-03T16:56:08;11.70;99.90
11532;DHT22;5822;51.000;5.874;2023-02-03T16:58:33;11.80;99.90
11532;DHT22;5822;51.000;5.874;2023-02-03T17:01:01;11.80;99.90
11532;DHT22;5822;51.000;5.874;2023-02-03T17:03:27;11.80;99.90
11532;DHT22;5822;51.000;5.874;2023-02-03T17:05:54;11.70;99.90
11532;DHT22;5822;51.000;5.874;2023-02-03T17:08:22;11.70;99.90
11532;DHT22;5822;51.000;5.874;2023-02-03T17:10:49;11.70;99.90
11532;DHT22;5822;51.000;5.874;2023-02-03T17:13:16;11.70;99.90
11532;DHT22;5822;51.000;5.874;2023-02-03T17:15:44;11.70;99.90
11532;DHT22;5822;51.000;5.874;2023-02-03T17:18:11;11.70;99.90
11532;DHT22;5822;51.000;5.874;2023-02-03T17:20:39;11.70;99.90
11532;DHT22;5822;51.000;5.874;2023-02-03T17:23:06;11.70;99.90
11532;DHT22;5822;51.000;5.874;2023-02-03T17:25:33;11.70;99.90
11532;DHT22;5822;51.000;5.874;2023-02-03T17:28:04;11.70;99.90
11532;DHT22;5822;51.000;5.874;2023-02-03T17:30:30;11.70;99.90
11532;DHT22;5822;51.000;5.874;2023-02-03T17:33:04;11.70;99.90
11532;DHT22;5822;51.000;5.874;2023-02-03T17:35:40;11.70;99.90
11532;DHT22;5822;51.000;5.874;2023-02-03T17:38:06;11.70;99.90
11532;DHT22;5822;51.000;5.874;2023-02-03T17:40:32;11.70;99.90
11532;DHT22;5822;51.000;5.874;2023-02-03T17:42:58;11.70;99.90
11532;DHT22;5822;51.000;5.874;2023-02-03T17:45:24;11.70;99.90
11532;DHT22;5822;51.000;5.874;2023-02-03T17:47:50;11.70;99.90
11532;DHT22;5822;51.000;5.874;2023-02-03T17:50:16;11.70;99.90
11532;DHT22;5822;51.000;5.874;2023-02-03T17:52:44;11.70;99.90
11532;DHT22;5822;51.000;5.874;2023-02-03T17:55:10;11.60;99.90
11532;DHT22;5822;51.000;5.874;2023-02-03T17:57:36;11.60;99.90
11532;DHT22;5822;51.000;5.874;2023-02-03T18:00:04;11.60;99.90
11532;DHT22;5822;51.000;5.874;2023-02-03T18:02:30;11.60;99.90
11532;DHT22;5822;51.000;5.874;2023-02-03T18:04:56;11.60;99.90
11532;DHT22;5822;51.000;5.874;2023-02-03T18:07:22;11.60;99.90
11532;DHT22;5822;51.000;5.874;2023-02-03T18:09:47;11.70;99.90
11532;DHT22;5822;51.000;5.874;2023-02-03T18:12:13;11.60;99.90
11532;DHT22;5822;51.000;5.874;2023-02-03T18:14:39;11.60;99.90
11532;DHT22;5822;51.000;5.874;2023-02-03T18:17:05;11.60;99.90
11532;DHT22;5822;51.000;5.874;2023-02-03T18:19:31;11.70;99.90
11532;DHT22;5822;51.000;5.874;2023-02-03T18:21:57;11.60;99.90
11532;DHT22;5822;51.000;5.874;2023-02-03T18:24:24;11.60;99.90
11532;DHT22;5822;51.000;5.874;2023-02-03T18:26:53;11.60;99.90
11532;DHT22;5822;51.000;5.874;2023-02-03T18:29:19;11.70;99.90
11532;DHT22;5822;51.000;5.874;2023-02-03T18:31:45;11.70;99.90
11532;DHT22;5822;51.000;5.874;2023-02-03T18:34:11;11.60;99.90